Denham Aerodrome


Codes: EGLD/
Name: Denham Aerodrome
City: Gerrards Cross
Country: United Kingdom
Elevation: 24 ft.
Website:
Wikipedia:

Photos at Denham Aerodrome


   Photos courtesy of SpottingLog. You can add your own sightings and photos by signing up for a free trial today.



G-LCPX, 01-Oct-2021
© Graham Rowe

G-WACY, 01-Oct-2021
© Graham Rowe

G-WARV, 01-Oct-2021
© Graham Rowe

G-BSDP, 01-Oct-2021
© Graham Rowe

G-BSFP, 01-Oct-2021
© Graham Rowe

G-HKHK, 14-Sep-2019
© Kevin Brewster

G-NIOG, 14-Sep-2019
© Kevin Brewster

N29566, 14-Sep-2019
© Kevin Brewster

SP-HPM, 14-Sep-2019
© Kevin Brewster

G-JEFA, 14-Sep-2019
© Kevin Brewster

G-LREE, 14-Sep-2019
© Kevin Brewster

LX-LAB, 14-Sep-2019
© Kevin Brewster


Weather at Denham Aerodrome


Time (UTC)DescriptionTempratureWindCloud coverageVisibilityPressureHumidity
23-May-2024 21:00Broken Clouds14°C9 mph, W58%10000m1013hPa68%
24-May-2024 00:00Broken Clouds11°C7 mph, W67%10000m1015hPa78%
24-May-2024 03:00Clear Sky7°C7 mph, W7%10000m1017hPa91%
24-May-2024 06:00Clear Sky9°C4 mph, W7%10000m1018hPa81%
24-May-2024 09:00Clear Sky14°C7 mph, SW5%10000m1019hPa65%
24-May-2024 12:00Scattered Clouds16°C7 mph, SW29%10000m1019hPa55%
24-May-2024 15:00Broken Clouds16°C7 mph, SW84%10000m1019hPa58%
24-May-2024 18:00Broken Clouds15°C4 mph, SW69%10000m1019hPa62%
24-May-2024 21:00Overcast Clouds13°C2 mph, SW90%10000m1020hPa71%
25-May-2024 00:00Overcast Clouds11°C4 mph, W91%10000m1019hPa78%
25-May-2024 03:00Few Clouds8°C2 mph, N21%10000m1019hPa89%
25-May-2024 06:00Scattered Clouds11°C0 mph, W31%10000m1019hPa81%
25-May-2024 09:00Broken Clouds15°C2 mph, S52%10000m1018hPa66%
25-May-2024 12:00Light Rain18°C9 mph, S42%10000m1017hPa49%
25-May-2024 15:00Overcast Clouds18°C11 mph, S87%10000m1016hPa49%
25-May-2024 18:00Overcast Clouds15°C9 mph, S93%10000m1015hPa64%
25-May-2024 21:00Overcast Clouds13°C4 mph, SE100%10000m1015hPa69%
26-May-2024 00:00Light Rain11°C4 mph, SE100%5032m1014hPa92%
26-May-2024 03:00Moderate Rain12°C7 mph, SE100%10000m1012hPa97%
26-May-2024 06:00Broken Clouds12°C7 mph, S60%10000m1013hPa94%
26-May-2024 09:00Light Rain16°C13 mph, SW44%10000m1012hPa76%
26-May-2024 12:00Light Rain18°C16 mph, SW42%10000m1013hPa63%
26-May-2024 15:00Light Rain17°C16 mph, SW32%10000m1013hPa64%
26-May-2024 18:00Light Rain15°C13 mph, SW20%10000m1014hPa72%
26-May-2024 21:00Scattered Clouds11°C9 mph, SW27%10000m1015hPa88%
27-May-2024 00:00Scattered Clouds9°C7 mph, SW30%10000m1016hPa91%
27-May-2024 03:00Clear Sky8°C7 mph, SW7%10000m1016hPa93%
27-May-2024 06:00Scattered Clouds10°C7 mph, SW42%10000m1016hPa85%
27-May-2024 09:00Light Rain14°C7 mph, S100%10000m1016hPa68%
27-May-2024 12:00Light Rain15°C9 mph, SW100%10000m1016hPa68%
27-May-2024 15:00Light Rain15°C9 mph, SW92%10000m1016hPa71%
27-May-2024 18:00Light Rain14°C7 mph, SW56%10000m1016hPa81%
27-May-2024 21:00Light Rain10°C7 mph, SW30%10000m1017hPa92%
28-May-2024 00:00Few Clouds8°C4 mph, SW17%10000m1017hPa96%
28-May-2024 03:00Scattered Clouds8°C4 mph, S26%10000m1016hPa99%
28-May-2024 06:00Broken Clouds11°C7 mph, S58%10000m1016hPa96%
28-May-2024 09:00Overcast Clouds14°C11 mph, SW100%10000m1015hPa79%
28-May-2024 12:00Light Rain12°C9 mph, SW100%10000m1014hPa95%
28-May-2024 15:00Light Rain13°C9 mph, S100%10000m1012hPa94%
28-May-2024 18:00Light Rain13°C9 mph, SW100%8028m1011hPa98%